Time;durP1;ratioP1;P1;durP2;ratioP2;P2;SDS_P1;SDS_P2;PMS_P1;PMS_P2;Temp;Humidity;BMP_temperature;BMP_pressure;BME280_temperature;BME280_humidity;BME280_pressure;Samples;Min_cycle;Max_cycle;Signal;HPM_P1;HPM_P2
2022/04/04 00:00:17;;;;;;;16.40;13.90;;;;;;;;;;5074472;28;20476;-76
2022/04/04 00:02:43;;;;;;;15.05;13.25;;;;;;;;;;5074012;28;20033;-77
2022/04/04 00:05:11;;;;;;;14.05;12.05;;;;;;;;;;5074257;28;20036;-76
2022/04/04 00:07:37;;;;;;;15.55;12.43;;;;;;;;;;5074122;28;20020;-77
2022/04/04 00:10:04;;;;;;;15.57;12.85;;;;;;;;;;5074076;28;20035;-76
2022/04/04 00:12:30;;;;;;;15.55;12.48;;;;;;;;;;5074086;28;20033;-75
2022/04/04 00:14:56;;;;;;;15.32;12.77;;;;;;;;;;5073819;28;20021;-79
2022/04/04 00:17:23;;;;;;;15.50;13.80;;;;;;;;;;5073977;28;20037;-76
2022/04/04 00:19:49;;;;;;;15.80;13.23;;;;;;;;;;5072460;28;20434;-76
2022/04/04 00:22:15;;;;;;;15.45;12.80;;;;;;;;;;5073965;28;20052;-77
2022/04/04 00:24:41;;;;;;;13.65;12.15;;;;;;;;;;5073685;28;20101;-77
2022/04/04 00:27:07;;;;;;;14.20;12.43;;;;;;;;;;5073726;28;20027;-77
2022/04/04 00:29:33;;;;;;;15.35;12.88;;;;;;;;;;5073669;28;20115;-76
2022/04/04 00:32:00;;;;;;;15.15;11.73;;;;;;;;;;5073401;28;20028;-76
2022/04/04 00:34:26;;;;;;;14.00;12.20;;;;;;;;;;5073762;28;20020;-76
2022/04/04 00:36:52;;;;;;;13.80;12.40;;;;;;;;;;5073462;28;20469;-76
2022/04/04 00:39:19;;;;;;;14.10;11.68;;;;;;;;;;5072319;28;20028;-76
2022/04/04 00:41:48;;;;;;;14.40;11.82;;;;;;;;;;5073584;28;20025;-76
2022/04/04 00:44:14;;;;;;;14.82;12.45;;;;;;;;;;5073391;28;20119;-76
2022/04/04 00:46:42;;;;;;;15.13;12.95;;;;;;;;;;5073572;28;20460;-78
2022/04/04 00:49:08;;;;;;;13.00;11.27;;;;;;;;;;5073082;28;20539;-76
2022/04/04 00:51:35;;;;;;;13.60;12.20;;;;;;;;;;5073480;28;20056;-76
2022/04/04 00:54:01;;;;;;;14.52;10.55;;;;;;;;;;5073011;28;20025;-77
2022/04/04 00:56:28;;;;;;;15.13;11.70;;;;;;;;;;5073171;28;20044;-76
2022/04/04 00:58:54;;;;;;;14.75;13.10;;;;;;;;;;5072799;28;20105;-76
2022/04/04 01:01:39;;;;;;;13.50;11.82;;;;;;;;;;5073127;28;20032;-76
2022/04/04 01:04:05;;;;;;;14.85;12.95;;;;;;;;;;5073089;28;20608;-76
2022/04/04 01:06:31;;;;;;;14.40;12.32;;;;;;;;;;5072333;28;20028;-76
2022/04/04 01:08:57;;;;;;;14.90;12.90;;;;;;;;;;5072769;28;20111;-77
2022/04/04 01:11:23;;;;;;;16.15;13.80;;;;;;;;;;5072947;28;20032;-75
2022/04/04 01:13:50;;;;;;;15.20;13.60;;;;;;;;;;5072700;28;20059;-76
2022/04/04 01:16:17;;;;;;;15.23;12.90;;;;;;;;;;5072861;28;20044;-76
2022/04/04 01:18:43;;;;;;;14.77;12.13;;;;;;;;;;5072741;28;20029;-76
2022/04/04 01:21:10;;;;;;;12.20;10.88;;;;;;;;;;5072835;28;20547;-77
2022/04/04 01:23:40;;;;;;;13.27;11.27;;;;;;;;;;5072861;28;20422;-77
2022/04/04 01:26:08;;;;;;;13.45;11.65;;;;;;;;;;5072594;28;20060;-76
2022/04/04 01:28:34;;;;;;;13.40;11.98;;;;;;;;;;5072746;28;20029;-76
2022/04/04 01:31:00;;;;;;;14.55;12.60;;;;;;;;;;5072499;28;20032;-76
2022/04/04 01:33:26;;;;;;;14.98;13.05;;;;;;;;;;5071442;28;20028;-76
2022/04/04 01:35:52;;;;;;;13.73;12.13;;;;;;;;;;5072473;28;20028;-77
2022/04/04 01:38:18;;;;;;;18.65;13.55;;;;;;;;;;5072647;28;20055;-76
2022/04/04 01:40:45;;;;;;;14.25;12.35;;;;;;;;;;5072433;28;20059;-77
2022/04/04 01:43:11;;;;;;;14.45;12.60;;;;;;;;;;5071385;28;20540;-76
2022/04/04 01:48:22;;;;;;;14.50;12.23;;;;;;;;;;5072468;28;20086;-76
2022/04/04 01:50:48;;;;;;;13.40;12.00;;;;;;;;;;5072388;28;20027;-76
2022/04/04 01:56:00;;;;;;;13.82;12.32;;;;;;;;;;5072370;28;20098;-76
2022/04/04 01:58:27;;;;;;;16.20;13.50;;;;;;;;;;5071932;28;20484;-77
2022/04/04 02:00:56;;;;;;;16.08;12.57;;;;;;;;;;5072251;28;20380;-77
2022/04/04 02:03:24;;;;;;;13.23;11.80;;;;;;;;;;5072107;28;20078;-77
2022/04/04 02:05:50;;;;;;;15.98;12.65;;;;;;;;;;5070884;28;20040;-76
2022/04/04 02:08:18;;;;;;;16.02;12.48;;;;;;;;;;5072276;28;20029;-77
2022/04/04 02:10:44;;;;;;;13.93;11.63;;;;;;;;;;5072194;28;20036;-76
2022/04/04 02:13:10;;;;;;;14.48;12.00;;;;;;;;;;5072251;28;20029;-77
2022/04/04 02:15:37;;;;;;;15.23;12.15;;;;;;;;;;5071980;28;20399;-76
2022/04/04 02:18:03;;;;;;;15.32;12.48;;;;;;;;;;5075168;28;20066;-76
2022/04/04 02:20:31;;;;;;;14.13;12.27;;;;;;;;;;5076088;28;20107;-77
2022/04/04 02:23:00;;;;;;;16.50;12.85;;;;;;;;;;5074828;28;20025;-75
2022/04/04 02:25:27;;;;;;;16.55;13.70;;;;;;;;;;5076000;28;20032;-77
2022/04/04 02:27:54;;;;;;;16.60;12.90;;;;;;;;;;5076131;28;20025;-76
2022/04/04 02:30:20;;;;;;;14.77;11.65;;;;;;;;;;5076052;28;20055;-76
2022/04/04 02:32:47;;;;;;;14.40;12.30;;;;;;;;;;5075950;28;20025;-77
2022/04/04 02:35:13;;;;;;;14.10;11.10;;;;;;;;;;5075923;28;20432;-77
2022/04/04 02:37:39;;;;;;;13.50;12.07;;;;;;;;;;5075615;28;20025;-77
2022/04/04 02:40:06;;;;;;;13.80;10.93;;;;;;;;;;5075821;28;20033;-76
2022/04/04 02:42:32;;;;;;;14.27;11.40;;;;;;;;;;5075607;28;20100;-76
2022/04/04 02:44:58;;;;;;;12.88;10.52;;;;;;;;;;5075581;28;20043;-75
2022/04/04 02:47:24;;;;;;;11.57;9.93;;;;;;;;;;5075706;28;20039;-75
2022/04/04 02:49:53;;;;;;;12.30;10.75;;;;;;;;;;5075705;28;20078;-75
2022/04/04 02:52:19;;;;;;;11.65;10.30;;;;;;;;;;5075548;28;20121;-76
2022/04/04 02:54:45;;;;;;;12.27;10.98;;;;;;;;;;5075432;28;20028;-75
2022/04/04 02:57:14;;;;;;;13.93;11.45;;;;;;;;;;5075528;28;20032;-75
2022/04/04 02:59:40;;;;;;;14.02;11.30;;;;;;;;;;5074835;28;20056;-75
2022/04/04 03:02:06;;;;;;;16.33;12.88;;;;;;;;;;5075348;28;20044;-75
2022/04/04 03:04:32;;;;;;;15.23;12.18;;;;;;;;;;5075260;28;20040;-76
2022/04/04 03:07:00;;;;;;;13.73;11.25;;;;;;;;;;5075367;28;20021;-76
2022/04/04 03:09:26;;;;;;;12.60;11.25;;;;;;;;;;5075121;28;20115;-76
2022/04/04 03:11:52;;;;;;;13.35;11.48;;;;;;;;;;5075116;28;20036;-75
2022/04/04 03:14:18;;;;;;;12.85;11.25;;;;;;;;;;5075057;28;20491;-76
2022/04/04 03:16:44;;;;;;;12.35;10.77;;;;;;;;;;5074938;28;20024;-76
2022/04/04 03:19:10;;;;;;;14.02;12.48;;;;;;;;;;5075045;28;20025;-76
2022/04/04 03:21:36;;;;;;;17.50;13.98;;;;;;;;;;5074912;28;20070;-76
2022/04/04 03:24:03;;;;;;;15.77;12.43;;;;;;;;;;5074828;28;20107;-76
2022/04/04 03:26:31;;;;;;;14.30;12.35;;;;;;;;;;5074952;28;20553;-76
2022/04/04 03:29:01;;;;;;;15.90;13.55;;;;;;;;;;5073899;28;20028;-76
2022/04/04 03:31:27;;;;;;;15.90;12.93;;;;;;;;;;5074856;28;20422;-76
2022/04/04 03:33:53;;;;;;;15.63;13.10;;;;;;;;;;5074568;28;20418;-76
2022/04/04 03:36:20;;;;;;;14.40;12.57;;;;;;;;;;5074716;28;20024;-75
2022/04/04 03:38:47;;;;;;;14.90;12.10;;;;;;;;;;5073344;28;20127;-75
2022/04/04 03:41:13;;;;;;;14.93;12.95;;;;;;;;;;5074635;28;20047;-75
2022/04/04 03:43:39;;;;;;;15.32;12.25;;;;;;;;;;5074552;28;20456;-76
2022/04/04 03:46:05;;;;;;;14.30;11.98;;;;;;;;;;5074323;28;20064;-76
2022/04/04 03:48:31;;;;;;;15.55;13.13;;;;;;;;;;5074585;28;20028;-76
2022/04/04 03:50:57;;;;;;;15.18;13.50;;;;;;;;;;5074265;28;20380;-76
2022/04/04 03:53:23;;;;;;;17.13;12.95;;;;;;;;;;5074085;28;20032;-75
2022/04/04 03:55:50;;;;;;;15.05;12.18;;;;;;;;;;5073953;28;20024;-76
2022/04/04 03:58:17;;;;;;;13.82;12.05;;;;;;;;;;5074162;28;20060;-76
2022/04/04 04:00:43;;;;;;;13.45;11.73;;;;;;;;;;5073307;28;20033;-75
2022/04/04 04:03:09;;;;;;;14.32;11.05;;;;;;;;;;5073789;28;20038;-78
2022/04/04 04:05:36;;;;;;;11.73;10.50;;;;;;;;;;5074207;28;20036;-78
2022/04/04 04:08:10;;;;;;;12.38;9.80;;;;;;;;;;5073765;28;20059;-79
2022/04/04 04:10:37;;;;;;;14.68;11.90;;;;;;;;;;5072790;28;20028;-77
2022/04/04 04:13:05;;;;;;;15.50;13.52;;;;;;;;;;5066950;28;20372;-77
2022/04/04 04:15:32;;;;;;;13.52;12.05;;;;;;;;;;5071085;28;20056;-77
2022/04/04 04:17:58;;;;;;;16.45;14.57;;;;;;;;;;5072859;28;20028;-77
2022/04/04 04:20:26;;;;;;;16.20;12.93;;;;;;;;;;5073352;28;20028;-76
2022/04/04 04:22:52;;;;;;;15.07;11.82;;;;;;;;;;5073696;28;20032;-76
2022/04/04 04:25:19;;;;;;;14.43;11.30;;;;;;;;;;5073674;28;20047;-77
2022/04/04 04:27:46;;;;;;;12.88;11.48;;;;;;;;;;5073583;28;20108;-77
2022/04/04 04:30:16;;;;;;;13.80;11.13;;;;;;;;;;5073798;28;20163;-77
2022/04/04 04:32:46;;;;;;;13.93;11.65;;;;;;;;;;5073599;28;20039;-78
2022/04/04 04:35:12;;;;;;;14.00;10.55;;;;;;;;;;5073636;28;20076;-77
2022/04/04 04:37:38;;;;;;;17.15;12.55;;;;;;;;;;5073472;28;20029;-76
2022/04/04 04:40:05;;;;;;;16.58;12.25;;;;;;;;;;5073505;28;20112;-77
2022/04/04 04:42:33;;;;;;;14.15;12.18;;;;;;;;;;5073501;28;20564;-77
2022/04/04 04:44:59;;;;;;;16.83;12.38;;;;;;;;;;5073344;28;20033;-77
2022/04/04 04:47:25;;;;;;;15.13;13.27;;;;;;;;;;5073335;28;20380;-76
2022/04/04 04:49:52;;;;;;;14.45;11.48;;;;;;;;;;5070142;28;20036;-77
2022/04/04 04:52:18;;;;;;;15.55;12.20;;;;;;;;;;5073115;28;20032;-77
2022/04/04 04:54:44;;;;;;;14.98;13.23;;;;;;;;;;5073152;28;20025;-77
2022/04/04 04:57:10;;;;;;;13.05;11.65;;;;;;;;;;5072986;28;20032;-77
2022/04/04 04:59:36;;;;;;;14.82;12.30;;;;;;;;;;5072808;28;20105;-76
2022/04/04 05:02:03;;;;;;;14.15;12.25;;;;;;;;;;5072644;28;20032;-76
2022/04/04 05:04:29;;;;;;;12.80;11.15;;;;;;;;;;5072897;28;20479;-77
2022/04/04 05:06:55;;;;;;;16.55;12.15;;;;;;;;;;5072726;28;20062;-76
2022/04/04 05:09:22;;;;;;;15.52;12.15;;;;;;;;;;5055647;28;20611;-77
2022/04/04 05:11:48;;;;;;;15.98;12.25;;;;;;;;;;5052832;28;20032;-77
2022/04/04 05:14:17;;;;;;;14.43;12.02;;;;;;;;;;5052923;28;20033;-77
2022/04/04 05:16:43;;;;;;;16.90;13.10;;;;;;;;;;5052770;28;20032;-77
2022/04/04 05:19:10;;;;;;;15.50;12.63;;;;;;;;;;5052346;28;20028;-78
2022/04/04 05:21:36;;;;;;;15.65;12.13;;;;;;;;;;5051948;28;20021;-77
2022/04/04 05:24:02;;;;;;;16.42;12.93;;;;;;;;;;5052498;28;20032;-77
2022/04/04 05:26:29;;;;;;;22.23;15.00;;;;;;;;;;5071041;28;20490;-77
2022/04/04 05:28:58;;;;;;;16.52;13.73;;;;;;;;;;5071918;28;20040;-77
2022/04/04 05:31:24;;;;;;;18.17;13.35;;;;;;;;;;5072071;28;20039;-76
2022/04/04 05:33:51;;;;;;;18.35;13.85;;;;;;;;;;5072192;28;20028;-77
2022/04/04 05:36:20;;;;;;;17.50;14.25;;;;;;;;;;5070429;28;20025;-77
2022/04/04 05:38:46;;;;;;;16.63;14.25;;;;;;;;;;5068977;28;20143;-76
2022/04/04 05:41:12;;;;;;;15.38;13.73;;;;;;;;;;5058916;28;20032;-76
2022/04/04 05:43:38;;;;;;;16.98;14.75;;;;;;;;;;5072006;28;20055;-76
2022/04/04 05:46:04;;;;;;;17.08;14.75;;;;;;;;;;5079192;28;20039;-76
2022/04/04 05:48:31;;;;;;;19.23;16.15;;;;;;;;;;5070326;28;20055;-75
2022/04/04 05:50:57;;;;;;;18.45;14.38;;;;;;;;;;5070087;28;20109;-75
2022/04/04 05:53:23;;;;;;;14.57;13.02;;;;;;;;;;5071613;28;20021;-76
2022/04/04 05:55:49;;;;;;;15.77;12.73;;;;;;;;;;5071681;28;20024;-77
2022/04/04 05:58:15;;;;;;;13.95;11.60;;;;;;;;;;5065319;28;20129;-76
2022/04/04 06:00:42;;;;;;;13.55;10.18;;;;;;;;;;5069581;28;20123;-77
2022/04/04 06:03:08;;;;;;;11.65;10.43;;;;;;;;;;5068904;28;20035;-76
2022/04/04 06:05:35;;;;;;;13.38;10.52;;;;;;;;;;5067994;28;20437;-75
2022/04/04 06:08:01;;;;;;;13.20;10.63;;;;;;;;;;5067692;28;20031;-76
2022/04/04 06:10:28;;;;;;;12.90;11.40;;;;;;;;;;5070507;28;20028;-77
2022/04/04 06:12:54;;;;;;;12.98;10.98;;;;;;;;;;5069604;28;20017;-78
2022/04/04 06:15:20;;;;;;;11.88;10.68;;;;;;;;;;5069166;28;20024;-76
2022/04/04 06:17:47;;;;;;;11.75;10.15;;;;;;;;;;5062343;28;20044;-71
2022/04/04 06:20:13;;;;;;;10.80;9.68;;;;;;;;;;5063339;28;20453;-78
2022/04/04 06:22:41;;;;;;;11.82;10.45;;;;;;;;;;5068693;28;20119;-77
2022/04/04 06:25:08;;;;;;;12.40;10.43;;;;;;;;;;5068027;28;20052;-77
2022/04/04 06:27:35;;;;;;;13.82;9.52;;;;;;;;;;5064550;28;20024;-75
2022/04/04 06:30:01;;;;;;;14.98;10.35;;;;;;;;;;5064870;28;20029;-74
2022/04/04 06:32:28;;;;;;;19.27;11.18;;;;;;;;;;5064461;28;20086;-76
2022/04/04 06:34:54;;;;;;;15.85;10.25;;;;;;;;;;5068548;28;20040;-75
2022/04/04 06:37:20;;;;;;;11.68;9.30;;;;;;;;;;5069691;28;20090;-77
2022/04/04 06:39:46;;;;;;;11.70;10.43;;;;;;;;;;5068718;28;20452;-77
2022/04/04 06:42:14;;;;;;;12.63;11.35;;;;;;;;;;5067080;28;20526;-76
2022/04/04 06:44:42;;;;;;;10.57;9.45;;;;;;;;;;5068761;28;20664;-77
2022/04/04 06:47:09;;;;;;;11.90;9.98;;;;;;;;;;5067013;28;20081;-75
2022/04/04 06:49:38;;;;;;;9.63;8.63;;;;;;;;;;5067836;28;20024;-76
2022/04/04 06:52:04;;;;;;;10.90;9.07;;;;;;;;;;5067650;28;20024;-77
2022/04/04 06:54:30;;;;;;;11.52;10.32;;;;;;;;;;5068432;28;20077;-76
2022/04/04 06:56:56;;;;;;;10.32;9.35;;;;;;;;;;5066682;28;20038;-77
2022/04/04 06:59:22;;;;;;;13.38;9.90;;;;;;;;;;5063643;28;20060;-76
2022/04/04 07:01:50;;;;;;;15.85;12.27;;;;;;;;;;5069449;28;20081;-77
2022/04/04 07:04:16;;;;;;;13.25;11.20;;;;;;;;;;5069351;28;20024;-78
2022/04/04 07:06:42;;;;;;;16.40;11.07;;;;;;;;;;5072397;28;20037;-77
2022/04/04 07:09:09;;;;;;;11.40;10.23;;;;;;;;;;5071972;28;20442;-78
2022/04/04 07:11:35;;;;;;;11.57;10.40;;;;;;;;;;5070222;28;20115;-79
2022/04/04 07:14:02;;;;;;;13.95;10.60;;;;;;;;;;5072738;28;20037;-77
2022/04/04 07:16:29;;;;;;;17.10;11.43;;;;;;;;;;5050349;28;20033;-78
2022/04/04 07:18:55;;;;;;;11.65;10.05;;;;;;;;;;5053038;28;20029;-77
2022/04/04 07:21:22;;;;;;;14.57;12.80;;;;;;;;;;5055374;28;20028;-76
2022/04/04 07:23:49;;;;;;;14.32;10.55;;;;;;;;;;5071586;28;20037;-75
2022/04/04 07:26:19;;;;;;;11.82;9.50;;;;;;;;;;5072645;28;20459;-76
2022/04/04 07:28:54;;;;;;;13.65;9.88;;;;;;;;;;5072111;28;20479;-79
2022/04/04 07:31:20;;;;;;;10.25;9.15;;;;;;;;;;5069754;28;20032;-76
2022/04/04 07:33:46;;;;;;;10.30;9.25;;;;;;;;;;5071186;28;20098;-75
2022/04/04 07:36:13;;;;;;;19.75;15.77;;;;;;;;;;5072988;28;20407;-77
2022/04/04 07:38:39;;;;;;;13.70;10.05;;;;;;;;;;5072331;28;20309;-76
2022/04/04 07:41:05;;;;;;;55.50;23.80;;;;;;;;;;5071269;28;20504;-76
2022/04/04 07:43:31;;;;;;;58.75;23.85;;;;;;;;;;5072187;28;20040;-78
2022/04/04 07:45:58;;;;;;;32.55;15.63;;;;;;;;;;5071975;28;20032;-78
2022/04/04 07:48:24;;;;;;;27.02;13.52;;;;;;;;;;5071519;28;20031;-78
2022/04/04 07:50:51;;;;;;;19.17;10.20;;;;;;;;;;5071984;28;20108;-77
2022/04/04 07:53:18;;;;;;;14.05;9.80;;;;;;;;;;5071666;28;20124;-81
2022/04/04 07:55:44;;;;;;;15.15;9.40;;;;;;;;;;5072740;28;20028;-78
2022/04/04 07:58:10;;;;;;;13.77;8.85;;;;;;;;;;5072542;28;20117;-78
2022/04/04 08:00:36;;;;;;;12.65;8.50;;;;;;;;;;5071844;28;20047;-78
2022/04/04 08:03:04;;;;;;;11.57;8.45;;;;;;;;;;5073243;28;20086;-80
2022/04/04 08:05:31;;;;;;;10.75;8.25;;;;;;;;;;5072395;28;20039;-75
2022/04/04 08:07:57;;;;;;;7.95;7.00;;;;;;;;;;5072872;28;20036;-79
2022/04/04 08:10:23;;;;;;;8.13;7.00;;;;;;;;;;5069584;28;20087;-78
2022/04/04 08:12:53;;;;;;;9.43;8.10;;;;;;;;;;5068088;28;20033;-81
2022/04/04 08:15:19;;;;;;;9.38;8.15;;;;;;;;;;5071517;28;20387;-78
2022/04/04 08:17:46;;;;;;;9.20;8.30;;;;;;;;;;5071833;28;20016;-76
2022/04/04 08:20:12;;;;;;;12.32;10.82;;;;;;;;;;5071593;28;20036;-77
2022/04/04 08:22:40;;;;;;;11.55;10.35;;;;;;;;;;5071818;28;20024;-78
2022/04/04 08:25:06;;;;;;;9.77;8.77;;;;;;;;;;5072086;28;20032;-77
2022/04/04 08:27:33;;;;;;;10.70;7.97;;;;;;;;;;5071604;28;20039;-76
2022/04/04 08:30:05;;;;;;;12.38;10.70;;;;;;;;;;5071701;28;20032;-77
2022/04/04 08:32:32;;;;;;;11.27;9.45;;;;;;;;;;5071812;28;20395;-77
2022/04/04 08:34:58;;;;;;;9.07;8.18;;;;;;;;;;5071687;28;20036;-76
2022/04/04 08:37:24;;;;;;;9.23;8.13;;;;;;;;;;5071862;28;20055;-76
2022/04/04 08:39:50;;;;;;;9.68;7.78;;;;;;;;;;5071078;28;20465;-77
2022/04/04 08:42:20;;;;;;;17.08;13.60;;;;;;;;;;5071688;28;20035;-77
2022/04/04 08:44:49;;;;;;;11.23;10.13;;;;;;;;;;5071307;28;20210;-76
2022/04/04 08:47:18;;;;;;;12.95;11.52;;;;;;;;;;5072619;28;20078;-76
2022/04/04 08:49:44;;;;;;;12.90;11.10;;;;;;;;;;5072099;28;20060;-74
2022/04/04 08:52:10;;;;;;;14.27;10.73;;;;;;;;;;5071386;28;20482;-71
2022/04/04 08:54:36;;;;;;;12.55;11.25;;;;;;;;;;5071624;28;20028;-75
2022/04/04 08:57:03;;;;;;;16.85;14.48;;;;;;;;;;5071181;28;20178;-76
2022/04/04 08:59:29;;;;;;;14.90;11.13;;;;;;;;;;5070215;28;20106;-76
2022/04/04 09:01:55;;;;;;;16.90;10.55;;;;;;;;;;5071130;28;20052;-74
2022/04/04 09:04:22;;;;;;;12.43;10.00;;;;;;;;;;5071288;28;20028;-75
2022/04/04 09:06:52;;;;;;;12.07;9.65;;;;;;;;;;5071150;28;20072;-77
2022/04/04 09:09:25;;;;;;;12.02;9.07;;;;;;;;;;5071107;28;20030;-79
2022/04/04 09:11:52;;;;;;;11.68;8.77;;;;;;;;;;5071375;28;20032;-76
2022/04/04 09:14:22;;;;;;;12.35;9.07;;;;;;;;;;5071671;28;20053;-75
2022/04/04 09:16:55;;;;;;;10.85;8.68;;;;;;;;;;5071110;28;20100;-76
2022/04/04 09:19:40;;;;;;;9.32;8.30;;;;;;;;;;5070741;28;20096;-75
2022/04/04 09:22:07;;;;;;;14.27;12.00;;;;;;;;;;5070933;28;20043;-75
2022/04/04 09:24:52;;;;;;;13.88;10.40;;;;;;;;;;5070866;28;20034;-76
2022/04/04 09:27:22;;;;;;;9.90;8.30;;;;;;;;;;5070307;28;20021;-75
2022/04/04 09:29:49;;;;;;;9.48;8.48;;;;;;;;;;5070802;28;20040;-75
2022/04/04 09:32:15;;;;;;;12.18;9.00;;;;;;;;;;5070972;28;20074;-74
2022/04/04 09:34:52;;;;;;;10.07;8.70;;;;;;;;;;5069312;28;20028;-76
2022/04/04 09:37:19;;;;;;;42.42;19.95;;;;;;;;;;5068036;28;20406;-79
2022/04/04 09:39:45;;;;;;;116.80;49.03;;;;;;;;;;5070270;28;20479;-76
2022/04/04 09:42:18;;;;;;;165.25;63.75;;;;;;;;;;5068624;28;20032;-77
2022/04/04 09:44:57;;;;;;;146.88;54.55;;;;;;;;;;5068458;28;20116;-77
2022/04/04 09:47:24;;;;;;;125.47;51.08;;;;;;;;;;5066142;28;20103;-76
2022/04/04 09:49:53;;;;;;;13.30;10.15;;;;;;;;;;5067715;28;20437;-78
2022/04/04 09:52:19;;;;;;;12.95;10.02;;;;;;;;;;5070762;28;20093;-77
2022/04/04 09:54:46;;;;;;;12.40;10.23;;;;;;;;;;5070121;28;20032;-76
2022/04/04 10:00:00;;;;;;;13.73;10.55;;;;;;;;;;5068486;28;20127;-75
2022/04/04 10:02:26;;;;;;;11.93;9.38;;;;;;;;;;5068768;28;20037;-77
2022/04/04 10:04:54;;;;;;;11.85;9.55;;;;;;;;;;5066690;28;20036;-77
2022/04/04 10:07:21;;;;;;;13.68;9.93;;;;;;;;;;5068794;28;20123;-78
2022/04/04 10:09:47;;;;;;;13.15;10.02;;;;;;;;;;5068917;28;20031;-77
2022/04/04 10:12:14;;;;;;;24.00;14.82;;;;;;;;;;5068254;28;20418;-81
2022/04/04 10:14:41;;;;;;;42.42;21.17;;;;;;;;;;5067830;28;20064;-77
2022/04/04 10:17:07;;;;;;;38.08;23.13;;;;;;;;;;5068024;28;20438;-76
2022/04/04 10:19:34;;;;;;;44.03;33.45;;;;;;;;;;5068566;28;20090;-77
2022/04/04 10:22:01;;;;;;;15.88;10.35;;;;;;;;;;5067244;28;20027;-76
2022/04/04 10:24:27;;;;;;;24.65;13.60;;;;;;;;;;5056227;28;20032;-76
2022/04/04 10:26:53;;;;;;;10.63;8.00;;;;;;;;;;5070203;28;20484;-75
2022/04/04 10:29:22;;;;;;;21.75;12.95;;;;;;;;;;5069761;28;20043;-76
2022/04/04 10:31:48;;;;;;;29.30;14.25;;;;;;;;;;5070808;28;20016;-76
2022/04/04 10:34:15;;;;;;;30.88;15.65;;;;;;;;;;5069562;28;20036;-77
2022/04/04 10:37:00;;;;;;;23.00;13.25;;;;;;;;;;5070435;28;20032;-77
2022/04/04 10:39:47;;;;;;;29.02;17.45;;;;;;;;;;5073324;28;20399;-76
2022/04/04 10:42:26;;;;;;;340.63;114.30;;;;;;;;;;5073342;28;20031;-79
2022/04/04 10:44:59;;;;;;;202.75;68.30;;;;;;;;;;5074052;28;20036;-78
2022/04/04 10:47:27;;;;;;;179.90;64.60;;;;;;;;;;5073370;28;20103;-80
2022/04/04 10:49:54;;;;;;;125.65;45.03;;;;;;;;;;5073524;28;20028;-79
2022/04/04 10:52:37;;;;;;;107.85;41.08;;;;;;;;;;5073110;28;20115;-76
2022/04/04 10:55:23;;;;;;;84.18;31.13;;;;;;;;;;5073987;28;20032;-80
2022/04/04 10:57:49;;;;;;;71.00;30.00;;;;;;;;;;5054078;28;20033;-80
2022/04/04 11:00:17;;;;;;;64.80;26.23;;;;;;;;;;5073750;28;20078;-81
2022/04/04 11:02:44;;;;;;;59.83;24.27;;;;;;;;;;5074104;28;20368;-77
2022/04/04 11:08:15;;;;;;;37.28;17.27;;;;;;;;;;5074216;28;20514;-78
2022/04/04 11:10:42;;;;;;;36.38;16.48;;;;;;;;;;5073225;28;20108;-77
2022/04/04 11:13:09;;;;;;;25.45;12.30;;;;;;;;;;5073581;28;20466;-78
2022/04/04 11:15:55;;;;;;;23.83;10.95;;;;;;;;;;5071988;28;20032;-78
2022/04/04 11:18:21;;;;;;;17.95;9.57;;;;;;;;;;5073355;28;20036;-79
2022/04/04 11:20:49;;;;;;;7.45;6.63;;;;;;;;;;5072755;28;20031;-76
2022/04/04 11:23:15;;;;;;;7.43;6.15;;;;;;;;;;5073771;28;20033;-75
2022/04/04 11:25:54;;;;;;;7.53;6.63;;;;;;;;;;5073240;28;20033;-75
2022/04/04 11:28:42;;;;;;;7.05;6.35;;;;;;;;;;5072678;28;20025;-76
2022/04/04 11:31:09;;;;;;;8.02;6.18;;;;;;;;;;5061330;28;20041;-76
2022/04/04 11:33:45;;;;;;;7.68;6.18;;;;;;;;;;5072510;28;20605;-75
2022/04/04 11:36:20;;;;;;;7.05;6.30;;;;;;;;;;5073353;28;20030;-76
2022/04/04 11:38:47;;;;;;;15.57;12.27;;;;;;;;;;5072282;28;20032;-74
2022/04/04 11:41:13;;;;;;;10.65;9.07;;;;;;;;;;5071993;28;20024;-77
2022/04/04 11:43:40;;;;;;;22.02;16.48;;;;;;;;;;5073328;28;20387;-76
2022/04/04 11:46:22;;;;;;;9.10;7.55;;;;;;;;;;5073994;28;20127;-76
2022/04/04 11:49:03;;;;;;;15.73;11.52;;;;;;;;;;5072272;28;20024;-77
2022/04/04 11:51:34;;;;;;;15.52;9.90;;;;;;;;;;5073020;28;20111;-81
2022/04/04 11:54:01;;;;;;;13.95;9.75;;;;;;;;;;5072895;28;20020;-75
2022/04/04 11:56:27;;;;;;;16.20;10.45;;;;;;;;;;5072707;28;20029;-76
2022/04/04 11:58:55;;;;;;;11.68;8.43;;;;;;;;;;5072096;28;20048;-77
2022/04/04 12:01:30;;;;;;;10.85;6.63;;;;;;;;;;5073743;28;20052;-76
2022/04/04 12:03:57;;;;;;;35.42;12.90;;;;;;;;;;5074164;28;20027;-76
2022/04/04 12:06:24;;;;;;;22.65;16.63;;;;;;;;;;5072152;28;20040;-75
2022/04/04 12:08:50;;;;;;;56.45;37.60;;;;;;;;;;5073199;28;20032;-75
2022/04/04 12:11:26;;;;;;;12.40;9.30;;;;;;;;;;5072085;28;20029;-76
2022/04/04 12:13:57;;;;;;;24.50;18.90;;;;;;;;;;5068539;28;20105;-76
2022/04/04 12:16:41;;;;;;;8.35;7.55;;;;;;;;;;5072793;28;20375;-76
2022/04/04 12:19:08;;;;;;;12.27;9.40;;;;;;;;;;5067104;28;20074;-75
2022/04/04 12:21:35;;;;;;;9.30;7.72;;;;;;;;;;5071997;28;20483;-75
2022/04/04 12:26:46;;;;;;;6.50;5.90;;;;;;;;;;5071815;28;20047;-77
2022/04/04 12:29:13;;;;;;;8.43;7.10;;;;;;;;;;5072788;28;20039;-75
2022/04/04 12:31:52;;;;;;;6.85;5.75;;;;;;;;;;5071852;28;20109;-75
2022/04/04 12:34:22;;;;;;;8.55;5.15;;;;;;;;;;5072442;28;20024;-76
2022/04/04 12:36:48;;;;;;;6.07;5.47;;;;;;;;;;5071247;28;20090;-76
2022/04/04 12:39:15;;;;;;;5.50;5.00;;;;;;;;;;5070684;28;20056;-76
2022/04/04 12:41:47;;;;;;;5.82;4.78;;;;;;;;;;5071501;28;20029;-76
2022/04/04 12:44:18;;;;;;;6.32;4.82;;;;;;;;;;5072594;28;20036;-76
2022/04/04 12:46:45;;;;;;;5.32;4.82;;;;;;;;;;5072312;28;20497;-75
2022/04/04 12:49:15;;;;;;;6.22;5.63;;;;;;;;;;5072076;28;20024;-75
2022/04/04 12:52:01;;;;;;;8.55;6.65;;;;;;;;;;5070850;28;20040;-76
2022/04/04 12:54:27;;;;;;;8.88;6.60;;;;;;;;;;5072781;28;20028;-77
2022/04/04 12:56:53;;;;;;;8.70;6.95;;;;;;;;;;5072245;28;20108;-77
2022/04/04 12:59:20;;;;;;;7.38;6.65;;;;;;;;;;5072484;28;20059;-76
2022/04/04 13:02:05;;;;;;;7.88;5.28;;;;;;;;;;5071547;28;20471;-76
2022/04/04 13:04:32;;;;;;;10.88;7.78;;;;;;;;;;5071913;28;20032;-76
2022/04/04 13:07:00;;;;;;;12.40;8.88;;;;;;;;;;5072696;28;20020;-75
2022/04/04 13:09:27;;;;;;;13.88;9.15;;;;;;;;;;5072767;28;20032;-75
2022/04/04 13:11:54;;;;;;;7.43;5.13;;;;;;;;;;5071982;28;20056;-74
2022/04/04 13:14:21;;;;;;;6.07;5.03;;;;;;;;;;5072454;28;20039;-76
2022/04/04 13:17:00;;;;;;;7.82;5.55;;;;;;;;;;5071895;28;20491;-76
2022/04/04 13:19:26;;;;;;;5.07;4.25;;;;;;;;;;5071924;28;20039;-76
2022/04/04 13:21:53;;;;;;;6.18;4.30;;;;;;;;;;5071837;28;20040;-77
2022/04/04 13:24:20;;;;;;;5.28;4.07;;;;;;;;;;5072151;28;20032;-76
2022/04/04 13:26:50;;;;;;;5.07;4.38;;;;;;;;;;5071847;28;20048;-76
2022/04/04 13:29:17;;;;;;;14.00;10.55;;;;;;;;;;5071101;28;20028;-76
2022/04/04 13:31:43;;;;;;;7.10;4.93;;;;;;;;;;5071368;28;20043;-77
2022/04/04 13:34:13;;;;;;;8.43;6.00;;;;;;;;;;5071311;28;20078;-77
2022/04/04 13:36:39;;;;;;;6.93;3.75;;;;;;;;;;5068646;28;20531;-76
2022/04/04 13:39:06;;;;;;;3.83;3.40;;;;;;;;;;5061062;28;20094;-76
2022/04/04 13:41:33;;;;;;;5.18;3.75;;;;;;;;;;5069628;28;20032;-76
2022/04/04 13:44:00;;;;;;;5.40;3.85;;;;;;;;;;5071517;28;20020;-76
2022/04/04 13:46:28;;;;;;;7.22;3.72;;;;;;;;;;5071116;28;20036;-77
2022/04/04 13:48:54;;;;;;;3.78;3.40;;;;;;;;;;5071407;28;20364;-77
2022/04/04 13:51:22;;;;;;;5.05;4.20;;;;;;;;;;5071273;28;20104;-77
2022/04/04 13:53:54;;;;;;;7.07;5.50;;;;;;;;;;5071358;28;20029;-77
2022/04/04 13:56:21;;;;;;;5.13;4.60;;;;;;;;;;5071133;28;20384;-76
2022/04/04 13:58:48;;;;;;;6.40;4.60;;;;;;;;;;5071097;28;20518;-76
2022/04/04 14:01:15;;;;;;;5.88;3.85;;;;;;;;;;5070778;28;20025;-76
2022/04/04 14:03:41;;;;;;;5.55;3.75;;;;;;;;;;5071890;28;20044;-76
2022/04/04 14:06:07;;;;;;;8.45;4.95;;;;;;;;;;5071839;28;20077;-76
2022/04/04 14:08:36;;;;;;;7.35;6.03;;;;;;;;;;5065415;28;20039;-76
2022/04/04 14:11:07;;;;;;;5.15;4.65;;;;;;;;;;5057044;28;20032;-76
2022/04/04 14:13:35;;;;;;;5.35;4.75;;;;;;;;;;5053776;28;20025;-77
2022/04/04 14:16:01;;;;;;;4.45;4.05;;;;;;;;;;5055560;28;20088;-76
2022/04/04 14:18:27;;;;;;;5.05;3.85;;;;;;;;;;5073852;28;20023;-76
2022/04/04 14:20:53;;;;;;;4.53;4.13;;;;;;;;;;5074107;28;20029;-76
2022/04/04 14:23:19;;;;;;;8.98;4.20;;;;;;;;;;5072873;28;20024;-76
2022/04/04 14:25:45;;;;;;;4.18;3.47;;;;;;;;;;5075603;28;20037;-76
2022/04/04 14:28:11;;;;;;;4.18;3.70;;;;;;;;;;5075731;28;20138;-76
2022/04/04 14:30:38;;;;;;;5.72;4.13;;;;;;;;;;5070154;28;20036;-76
2022/04/04 14:33:04;;;;;;;13.70;12.25;;;;;;;;;;5075123;28;20059;-76
2022/04/04 14:35:30;;;;;;;6.38;5.78;;;;;;;;;;5075473;28;20463;-76
2022/04/04 14:37:56;;;;;;;9.02;7.95;;;;;;;;;;5074777;28;20442;-76
2022/04/04 14:40:22;;;;;;;5.90;4.53;;;;;;;;;;5075040;28;20029;-77